createdAt,value
2024-03-03T00:00:04.246Z,98070.94
2024-03-03T00:03:06.234Z,98070.19
2024-03-03T00:06:08.070Z,98078.50
2024-03-03T00:09:10.333Z,98071.28
2024-03-03T00:12:11.755Z,98094.91
2024-03-03T00:15:15.508Z,98104.72
2024-03-03T00:18:17.289Z,98098.50
2024-03-03T00:21:18.807Z,98109.91
2024-03-03T00:24:20.242Z,98084.06
2024-03-03T00:27:21.688Z,98070.00
2024-03-03T00:30:24.485Z,98087.66
2024-03-03T00:33:25.895Z,98080.00
2024-03-03T00:36:27.258Z,98078.69
2024-03-03T00:39:28.750Z,98093.09
2024-03-03T00:42:30.280Z,98080.19
2024-03-03T00:45:32.963Z,98094.16
2024-03-03T00:48:34.332Z,98078.41
2024-03-03T00:51:37.333Z,98081.19
2024-03-03T00:54:38.837Z,98066.91
2024-03-03T00:57:40.248Z,98061.69
2024-03-03T01:00:43.587Z,98079.88
2024-03-03T01:03:45.102Z,98067.75
2024-03-03T01:06:46.619Z,98086.25
2024-03-03T01:09:48.073Z,98056.56
2024-03-03T01:12:49.918Z,98056.22
2024-03-03T01:15:52.623Z,98069.25
2024-03-03T01:18:54.091Z,98074.69
2024-03-03T01:21:55.547Z,98068.56
2024-03-03T01:24:57.126Z,98072.09
2024-03-03T01:27:58.659Z,98085.53
2024-03-03T01:31:01.609Z,98091.28
2024-03-03T01:34:03.103Z,98064.03
2024-03-03T01:37:04.715Z,98043.34
2024-03-03T01:40:06.967Z,98057.19
2024-03-03T01:43:09.437Z,98054.50
2024-03-03T01:46:12.301Z,98068.63
2024-03-03T01:49:14.087Z,98071.66
2024-03-03T01:52:15.620Z,98031.03
2024-03-03T01:55:17.703Z,98045.06
2024-03-03T01:58:19.351Z,98074.31
2024-03-03T02:01:22.272Z,98086.25
2024-03-03T02:04:24.003Z,98098.91
2024-03-03T02:07:25.434Z,98086.34
2024-03-03T02:10:26.913Z,98091.03
2024-03-03T02:13:28.406Z,98104.81
2024-03-03T02:16:31.208Z,98108.25
2024-03-03T02:19:35.702Z,98116.19
2024-03-03T02:22:38.826Z,98117.00
2024-03-03T02:25:40.462Z,98076.72
2024-03-03T02:28:41.872Z,98082.34
2024-03-03T02:31:43.608Z,98101.69
2024-03-03T02:34:45.146Z,98093.59
2024-03-03T02:37:49.659Z,98106.63
2024-03-03T02:40:51.069Z,98133.16
2024-03-03T02:43:52.481Z,98136.75
2024-03-03T02:46:54.892Z,98122.94
2024-03-03T02:49:56.290Z,98119.50
2024-03-03T02:52:59.398Z,98112.09
2024-03-03T02:56:00.927Z,98105.16
2024-03-03T02:59:02.396Z,98108.34
2024-03-03T03:02:04.323Z,98123.38
2024-03-03T03:05:07.113Z,98129.69
2024-03-03T03:08:09.980Z,98151.50
2024-03-03T03:11:13.680Z,98150.19
2024-03-03T03:14:15.205Z,98149.88
2024-03-03T03:17:16.690Z,98152.19
2024-03-03T03:20:18.197Z,98151.22
2024-03-03T03:23:20.943Z,98156.50
2024-03-03T03:26:22.378Z,98167.75
2024-03-03T03:29:23.909Z,98171.91
2024-03-03T03:32:25.289Z,98175.69
2024-03-03T03:35:26.834Z,98173.56
2024-03-03T03:38:29.646Z,98174.91
2024-03-03T03:41:31.117Z,98185.16
2024-03-03T03:44:32.669Z,98175.41
2024-03-03T03:47:34.516Z,98181.03
2024-03-03T03:50:36.001Z,98184.34
2024-03-03T03:53:38.740Z,98185.47
2024-03-03T03:56:40.204Z,98194.94
2024-03-03T03:59:42.998Z,98197.59
2024-03-03T04:02:44.403Z,98201.38
2024-03-03T04:05:45.870Z,98208.81
2024-03-03T04:08:48.671Z,98214.13
2024-03-03T04:11:50.070Z,98209.97
2024-03-03T04:14:51.513Z,98217.09
2024-03-03T04:17:52.961Z,98219.09
2024-03-03T04:20:54.367Z,98224.72
2024-03-03T04:23:57.191Z,98220.25
2024-03-03T04:26:58.733Z,98222.72
2024-03-03T04:30:00.320Z,98222.88
2024-03-03T04:33:01.785Z,98230.97
2024-03-03T04:36:03.472Z,98231.78
2024-03-03T04:39:06.279Z,98228.66
2024-03-03T04:42:07.858Z,98226.81
2024-03-03T04:45:09.680Z,98233.28
2024-03-03T04:48:11.156Z,98252.00
2024-03-03T04:51:12.646Z,98255.81
2024-03-03T04:54:15.418Z,98263.59
2024-03-03T04:57:16.868Z,98260.75
2024-03-03T05:00:18.600Z,98257.63
2024-03-03T05:03:19.932Z,98259.94
2024-03-03T05:06:21.389Z,98257.72
2024-03-03T05:09:24.134Z,98263.84
2024-03-03T05:12:25.538Z,98267.66
2024-03-03T05:15:27.004Z,98270.41
2024-03-03T05:18:28.366Z,98279.19
2024-03-03T05:21:29.781Z,98284.66
2024-03-03T05:24:32.532Z,98295.78
2024-03-03T05:27:33.971Z,98302.88
2024-03-03T05:30:35.359Z,98309.66
2024-03-03T05:33:36.730Z,98319.44
2024-03-03T05:36:38.133Z,98320.41
2024-03-03T05:39:40.864Z,98327.88
2024-03-03T05:42:42.311Z,98332.13
2024-03-03T05:45:44.896Z,98338.47
2024-03-03T05:48:47.294Z,98333.13
2024-03-03T05:51:48.759Z,98347.38
2024-03-03T05:54:51.588Z,98356.63
2024-03-03T05:57:53.085Z,98360.44
2024-03-03T06:00:54.571Z,98372.66
2024-03-03T06:03:56.040Z,98370.22
2024-03-03T06:06:57.480Z,98384.88
2024-03-03T06:10:00.398Z,98395.63
2024-03-03T06:13:02.017Z,98396.97
2024-03-03T06:16:03.677Z,98402.09
2024-03-03T06:19:05.230Z,98397.97
2024-03-03T06:22:07.769Z,98411.31
2024-03-03T06:25:11.326Z,98411.13
2024-03-03T06:28:12.859Z,98416.97
2024-03-03T06:31:14.304Z,98422.03
2024-03-03T06:34:15.756Z,98422.25
2024-03-03T06:37:17.263Z,98429.88
2024-03-03T06:40:20.204Z,98433.47
2024-03-03T06:43:21.795Z,98439.63
2024-03-03T06:46:23.242Z,98459.19
2024-03-03T06:49:28.886Z,98465.56
2024-03-03T06:52:30.373Z,98465.09
2024-03-03T06:55:33.189Z,98469.59
2024-03-03T06:58:34.699Z,98475.38
2024-03-03T07:01:38.671Z,98484.44
2024-03-03T07:04:40.243Z,98485.28
2024-03-03T07:07:41.634Z,98500.41
2024-03-03T07:10:44.413Z,98506.44
2024-03-03T07:13:45.951Z,98494.69
2024-03-03T07:16:47.332Z,98487.22
2024-03-03T07:19:48.723Z,98494.72
2024-03-03T07:22:50.154Z,98505.53
2024-03-03T07:25:52.939Z,98504.53
2024-03-03T07:28:54.289Z,98501.44
2024-03-03T07:31:55.694Z,98524.34
2024-03-03T07:34:57.125Z,98527.22
2024-03-03T07:37:58.569Z,98528.72
2024-03-03T07:41:01.355Z,98523.59
2024-03-03T07:44:02.731Z,98520.09
2024-03-03T07:47:08.569Z,98523.78
2024-03-03T07:50:10.111Z,98520.13
2024-03-03T07:53:11.756Z,98511.47
2024-03-03T07:56:14.561Z,98523.44
2024-03-03T07:59:16.002Z,98504.69
2024-03-03T08:02:17.363Z,98515.09
2024-03-03T08:05:18.985Z,98528.00
2024-03-03T08:08:20.358Z,98519.50
2024-03-03T08:11:23.034Z,98526.31
2024-03-03T08:14:24.520Z,98513.47
2024-03-03T08:17:25.940Z,98481.91
2024-03-03T08:20:34.056Z,98469.44
2024-03-03T08:23:35.402Z,98463.00
2024-03-03T08:26:38.152Z,98453.47
2024-03-03T08:29:39.598Z,98423.72
2024-03-03T08:32:41.229Z,98434.19
2024-03-03T08:35:42.660Z,98413.31
2024-03-03T08:38:44.405Z,98424.09
2024-03-03T08:41:47.334Z,98400.56
2024-03-03T08:44:48.807Z,98391.97
2024-03-03T08:47:53.245Z,98390.88
2024-03-03T08:50:58.984Z,98385.66
2024-03-03T08:54:00.366Z,98394.00
2024-03-03T08:57:06.288Z,98396.59
2024-03-03T09:00:09.438Z,98382.47
2024-03-03T09:03:10.819Z,98353.59
2024-03-03T09:06:16.992Z,98372.38
2024-03-03T09:09:18.329Z,98345.47
2024-03-03T09:12:27.861Z,98349.97
2024-03-03T09:15:36.116Z,98328.44
2024-03-03T09:18:37.569Z,98322.34
2024-03-03T09:21:38.986Z,98308.78
2024-03-03T09:24:40.963Z,98305.75
2024-03-03T09:27:43.762Z,98278.44
2024-03-03T09:30:45.281Z,98268.47
2024-03-03T09:33:47.184Z,98265.19
2024-03-03T09:36:48.712Z,98258.50
2024-03-03T09:39:50.188Z,98262.72
2024-03-03T09:42:52.976Z,98275.50
2024-03-03T09:45:54.415Z,98255.31
2024-03-03T09:48:55.927Z,98230.13
2024-03-03T09:51:57.330Z,98229.47
2024-03-03T09:54:58.852Z,98214.16
2024-03-03T09:58:01.583Z,98212.09
2024-03-03T10:01:03.277Z,98202.81
2024-03-03T10:04:05.021Z,98191.84
2024-03-03T10:07:06.887Z,98205.38
2024-03-03T10:10:08.676Z,98219.09
2024-03-03T10:13:11.436Z,98202.63
2024-03-03T10:16:12.991Z,98174.94
2024-03-03T10:19:14.494Z,98168.06
2024-03-03T10:22:17.419Z,98170.63
2024-03-03T10:25:19.039Z,98176.75
2024-03-03T10:28:21.862Z,98182.09
2024-03-03T10:31:23.583Z,98148.06
2024-03-03T10:34:25.609Z,98154.88
2024-03-03T10:37:27.371Z,98138.50
2024-03-03T10:40:28.957Z,98151.38
2024-03-03T10:43:31.758Z,98119.16
2024-03-03T10:46:33.331Z,98142.31
2024-03-03T10:49:34.844Z,98130.66
2024-03-03T10:52:38.108Z,98111.88
2024-03-03T10:55:39.903Z,98082.44
2024-03-03T10:58:42.583Z,98101.88
2024-03-03T11:01:44.173Z,98080.00
2024-03-03T11:04:45.678Z,98071.16
2024-03-03T11:07:47.109Z,98062.97
2024-03-03T11:10:49.296Z,98064.63
2024-03-03T11:13:58.562Z,98051.63
2024-03-03T11:17:00.211Z,98034.56
2024-03-03T11:20:01.975Z,98048.94
2024-03-03T11:23:06.525Z,98043.59
2024-03-03T11:26:09.498Z,97993.44
2024-03-03T11:29:12.371Z,98007.59
2024-03-03T11:32:13.837Z,98021.44
2024-03-03T11:35:15.310Z,98010.72
2024-03-03T11:38:16.802Z,97992.81
2024-03-03T11:41:18.434Z,97986.44
2024-03-03T11:44:39.043Z,97998.41
2024-03-03T11:47:42.779Z,97980.91
2024-03-03T11:50:44.308Z,97961.13
2024-03-03T11:53:47.983Z,97942.63
2024-03-03T11:56:50.999Z,97946.47
2024-03-03T11:59:58.589Z,97936.97
2024-03-03T12:03:01.619Z,97937.50
2024-03-03T12:06:03.357Z,97904.75
2024-03-03T12:09:05.053Z,97898.59
2024-03-03T12:12:07.154Z,97907.22
2024-03-03T12:15:08.876Z,97901.78
2024-03-03T12:18:12.005Z,97876.06
2024-03-03T12:21:13.391Z,97888.66
2024-03-03T12:24:14.856Z,97916.34
2024-03-03T12:27:16.260Z,97872.56
2024-03-03T12:30:19.650Z,97892.13
2024-03-03T12:33:22.494Z,97860.22
2024-03-03T12:36:23.965Z,97793.41
2024-03-03T12:39:25.330Z,97819.59
2024-03-03T12:42:26.729Z,97831.44
2024-03-03T12:45:28.158Z,97863.06
2024-03-03T12:48:30.908Z,97838.84
2024-03-03T12:51:32.297Z,97855.34
2024-03-03T12:54:33.841Z,97809.44
2024-03-03T12:57:35.213Z,97793.66
2024-03-03T13:00:36.726Z,97788.38
2024-03-03T13:03:43.115Z,97799.75
2024-03-03T13:06:46.195Z,97739.84
2024-03-03T13:09:49.875Z,97752.41
2024-03-03T13:12:52.470Z,97809.16
2024-03-03T13:15:54.220Z,97822.81
2024-03-03T13:19:00.412Z,97760.81
2024-03-03T13:22:02.141Z,97800.94
2024-03-03T13:25:03.866Z,97783.38
2024-03-03T13:28:05.690Z,97803.81
2024-03-03T13:31:07.585Z,97796.53
2024-03-03T13:34:11.663Z,97833.03
2024-03-03T13:37:13.267Z,97784.81
2024-03-03T13:40:14.737Z,97759.34
2024-03-03T13:43:16.339Z,97772.59
2024-03-03T13:46:17.827Z,97827.19
2024-03-03T13:49:20.645Z,97787.50
2024-03-03T13:52:22.170Z,97813.03
2024-03-03T13:55:23.646Z,97831.22
2024-03-03T13:58:25.291Z,97827.03
2024-03-03T14:01:26.806Z,97843.50
2024-03-03T14:04:29.653Z,97813.94
2024-03-03T14:07:32.098Z,97815.28
2024-03-03T14:10:33.740Z,97826.06
2024-03-03T14:13:36.254Z,97868.88
2024-03-03T14:16:37.782Z,97876.78
2024-03-03T14:19:40.687Z,97879.69
2024-03-03T14:22:42.124Z,97894.59
2024-03-03T14:25:43.600Z,97895.16
2024-03-03T14:28:45.200Z,97896.28
2024-03-03T14:31:46.685Z,97900.50
2024-03-03T14:34:49.456Z,97874.28
2024-03-03T14:37:50.896Z,97910.41
2024-03-03T14:40:52.277Z,97893.09
2024-03-03T14:43:53.702Z,97885.31
2024-03-03T14:46:55.127Z,97861.16
2024-03-03T14:50:00.891Z,97865.88
2024-03-03T14:53:04.115Z,97839.94
2024-03-03T14:56:05.759Z,97828.09
2024-03-03T14:59:07.182Z,97805.75
2024-03-03T15:02:08.679Z,97835.19
2024-03-03T15:05:11.529Z,97829.19
2024-03-03T15:08:13.989Z,97809.53
2024-03-03T15:11:15.328Z,97776.78
2024-03-03T15:14:16.737Z,97805.16
2024-03-03T15:17:18.435Z,97807.59
2024-03-03T15:20:21.139Z,97793.91
2024-03-03T15:23:23.478Z,97782.25
2024-03-03T15:26:24.806Z,97804.97
2024-03-03T15:29:26.176Z,97791.97
2024-03-03T15:32:27.632Z,97776.06
2024-03-03T15:35:30.415Z,97752.00
2024-03-03T15:38:31.884Z,97741.56
2024-03-03T15:41:33.282Z,97770.16
2024-03-03T15:44:34.719Z,97761.69
2024-03-03T15:47:36.184Z,97774.56
2024-03-03T15:50:38.917Z,97778.13
2024-03-03T15:53:40.296Z,97794.06
2024-03-03T15:56:41.818Z,97825.00
2024-03-03T15:59:43.187Z,97815.63
2024-03-03T16:02:44.760Z,97839.16
2024-03-03T16:05:47.513Z,97857.72
2024-03-03T16:08:48.968Z,97850.50
2024-03-03T16:11:50.315Z,97863.34
2024-03-03T16:14:51.817Z,97876.94
2024-03-03T16:17:53.302Z,97890.31
2024-03-03T16:20:57.069Z,97898.00
2024-03-03T16:23:58.514Z,97914.47
2024-03-03T16:27:02.119Z,97916.91
2024-03-03T16:30:04.807Z,97934.44
2024-03-03T16:33:07.239Z,97971.03
2024-03-03T16:36:15.022Z,97974.75
2024-03-03T16:39:19.774Z,97975.13
2024-03-03T16:42:21.285Z,98002.06
2024-03-03T16:45:22.771Z,97996.31
2024-03-03T16:48:24.298Z,98006.59
2024-03-03T16:51:27.102Z,97991.97
2024-03-03T16:54:28.491Z,97997.91
2024-03-03T16:57:29.967Z,97996.59
2024-03-03T17:00:31.392Z,98015.13
2024-03-03T17:03:32.866Z,98011.00
2024-03-03T17:06:35.576Z,98030.25
2024-03-03T17:09:37.034Z,98023.06
2024-03-03T17:12:38.495Z,98033.69
2024-03-03T17:15:39.899Z,98029.06
2024-03-03T17:18:41.277Z,98052.28
2024-03-03T17:21:44.009Z,98063.59
2024-03-03T17:24:45.371Z,98054.97
2024-03-03T17:27:46.783Z,98075.94
2024-03-03T17:30:48.328Z,98084.72
2024-03-03T17:33:49.799Z,98101.94
2024-03-03T17:36:52.649Z,98095.81
2024-03-03T17:39:54.098Z,98091.47
2024-03-03T17:42:55.504Z,98101.50
2024-03-03T17:45:56.970Z,98100.69
2024-03-03T17:48:58.476Z,98104.72
2024-03-03T17:52:01.281Z,98123.88
2024-03-03T17:55:02.898Z,98111.38
2024-03-03T17:58:04.337Z,98148.78
2024-03-03T18:01:05.940Z,98141.81
2024-03-03T18:04:07.405Z,98135.16
2024-03-03T18:07:11.816Z,98144.09
2024-03-03T18:10:14.526Z,98148.69
2024-03-03T18:13:16.179Z,98158.31
2024-03-03T18:16:17.660Z,98157.94
2024-03-03T18:19:19.216Z,98179.94
2024-03-03T18:22:26.539Z,98182.13
2024-03-03T18:25:31.382Z,98182.69
2024-03-03T18:28:32.874Z,98175.84
2024-03-03T18:31:34.392Z,98171.75
2024-03-03T18:34:35.981Z,98159.91
2024-03-03T18:37:42.030Z,98174.78
2024-03-03T18:40:43.551Z,98196.28
2024-03-03T18:43:45.014Z,98215.81
2024-03-03T18:46:46.416Z,98219.00
2024-03-03T18:49:47.787Z,98211.19
2024-03-03T18:52:50.556Z,98205.53
2024-03-03T18:55:52.045Z,98200.56
2024-03-03T18:58:53.415Z,98210.94
2024-03-03T19:01:55.158Z,98218.09
2024-03-03T19:04:56.644Z,98231.56
2024-03-03T19:08:00.501Z,98234.69
2024-03-03T19:11:01.973Z,98211.97
2024-03-03T19:14:03.353Z,98216.09
2024-03-03T19:17:04.952Z,98227.72
2024-03-03T19:20:07.132Z,98228.34
2024-03-03T19:23:13.093Z,98225.19
2024-03-03T19:26:20.478Z,98247.50
2024-03-03T19:29:21.958Z,98241.69
2024-03-03T19:32:23.308Z,98246.94
2024-03-03T19:35:24.706Z,98247.03
2024-03-03T19:38:31.491Z,98251.78
2024-03-03T19:41:32.878Z,98264.19
2024-03-03T19:44:34.622Z,98254.44
2024-03-03T19:47:36.094Z,98275.31
2024-03-03T19:50:37.624Z,98277.00
2024-03-03T19:53:43.382Z,98269.13
2024-03-03T19:56:48.060Z,98274.44
2024-03-03T19:59:49.442Z,98273.59
2024-03-03T20:02:50.963Z,98276.81
2024-03-03T20:05:52.393Z,98292.25
2024-03-03T20:09:01.404Z,98287.97
2024-03-03T20:12:02.969Z,98292.56
2024-03-03T20:15:06.552Z,98292.28
2024-03-03T20:18:08.003Z,98281.44
2024-03-03T20:21:09.463Z,98263.53
2024-03-03T20:24:15.804Z,98269.34
2024-03-03T20:27:21.542Z,98272.09
2024-03-03T20:30:23.030Z,98263.34
2024-03-03T20:33:24.366Z,98259.66
2024-03-03T20:36:25.780Z,98267.22
2024-03-03T20:39:28.668Z,98257.56
2024-03-03T20:42:33.386Z,98244.97
2024-03-03T20:45:34.811Z,98262.13
2024-03-03T20:48:36.208Z,98251.53
2024-03-03T20:51:37.665Z,98269.56
2024-03-03T20:54:40.430Z,98253.28
2024-03-03T20:57:45.251Z,98252.91
2024-03-03T21:00:46.675Z,98278.38
2024-03-03T21:03:48.125Z,98292.00
2024-03-03T21:06:49.540Z,98321.22
2024-03-03T21:09:55.334Z,98342.63
2024-03-03T21:13:00.062Z,98326.84
2024-03-03T21:16:01.595Z,98333.09
2024-03-03T21:19:03.172Z,98331.28
2024-03-03T21:22:04.673Z,98340.06
2024-03-03T21:25:12.586Z,98326.69
2024-03-03T21:28:14.099Z,98346.16
2024-03-03T21:31:15.697Z,98342.91
2024-03-03T21:34:17.125Z,98336.34
2024-03-03T21:37:18.653Z,98336.09
2024-03-03T21:40:22.542Z,98325.44
2024-03-03T21:43:27.197Z,98334.75
2024-03-03T21:46:28.692Z,98342.34
2024-03-03T21:49:30.212Z,98345.16
2024-03-03T21:52:31.784Z,98350.97
2024-03-03T21:55:34.645Z,98345.81
2024-03-03T21:58:38.385Z,98345.81
2024-03-03T22:01:48.415Z,98352.00
2024-03-03T22:04:57.776Z,98351.34
2024-03-03T22:07:59.216Z,98346.75
2024-03-03T22:11:04.988Z,98359.03
2024-03-03T22:14:06.395Z,98340.19
2024-03-03T22:17:07.844Z,98357.44
2024-03-03T22:20:09.878Z,98353.97
2024-03-03T22:23:11.237Z,98358.75
2024-03-03T22:26:18.482Z,98354.47
2024-03-03T22:29:20.062Z,98336.66
2024-03-03T22:32:21.458Z,98354.91
2024-03-03T22:35:22.910Z,98364.97
2024-03-03T22:38:24.301Z,98363.84
2024-03-03T22:41:31.443Z,98364.88
2024-03-03T22:44:36.213Z,98373.16
2024-03-03T22:47:37.757Z,98372.00
2024-03-03T22:50:39.167Z,98387.75
2024-03-03T22:53:40.528Z,98386.25
2024-03-03T22:56:43.343Z,98383.25
2024-03-03T22:59:45.699Z,98386.38
2024-03-03T23:02:47.098Z,98396.66
2024-03-03T23:05:48.438Z,98421.72
2024-03-03T23:08:49.872Z,98434.00
2024-03-03T23:11:52.669Z,98422.75
2024-03-03T23:14:57.354Z,98411.91
2024-03-03T23:17:58.800Z,98411.28
2024-03-03T23:21:00.245Z,98434.47
2024-03-03T23:24:01.669Z,98436.31
2024-03-03T23:27:05.122Z,98423.72
2024-03-03T23:30:07.040Z,98433.00
2024-03-03T23:33:08.407Z,98434.31
2024-03-03T23:36:09.866Z,98448.09
2024-03-03T23:39:11.335Z,98450.75
2024-03-03T23:42:15.105Z,98456.22
2024-03-03T23:45:16.584Z,98457.53
2024-03-03T23:48:17.975Z,98447.59
2024-03-03T23:51:19.439Z,98453.69
2024-03-03T23:54:20.820Z,98457.06
2024-03-03T23:57:23.674Z,98472.13
